PWSweather.com
Personal Weather Stations
Station Observations
BRISTOL
HorfieldFilton, BristolGB BS7

HorfieldFiltonBristolGB BS7

Lat: 51.5, Lon: -2.576

Elevation: 272

Station Type: Davis VP2

http://www.martynhicks.co.uk/weather/data.php

Latest ConditionsUpdated 12:20:02 PM GMT Saturday, May 30, 2015
Currently Today's Max Today's Min Today's Average
Temperature 59.5°F15.3°C 59.5°F15.3°C 45.0°F7.2°C 51.2°F10.7°C
Dew Point 42.4°F5.8°C 45.2°F7.3°C 40.0°F4.4°C 42.8°F6.0°C
Winds 3.5 mph W5.6 kmh W 5.8 mph W9.3 kmh W - 1.7 mph 2.7 kmh
Wind Gusts 5.8 mph9.3 kmh 11.5 mph18.5 kmh - -
Humidity 53% 90% 51% 74%
Pressure 29.97 in1014.9 mb 29.97 in1014.9 mb 29.87 in1011.5 mb -
Hour Temp Dew Point Humidity Winds Wind Gusts Pressure Precip Precip Rate Daily Precip Total
12:20 PM 59.5°F15.3°C 42.4°F5.8°C 53% 3.5 mph W5.6 kmh W 5.8 mph9.3 kmh 29.97 in1014.9 mb - 0.00 in0.0 mm 0.00 in0.0 mm
12:10 PM 58.6°F14.8°C 42.5°F5.8°C 55% 1.2 mph W1.9 kmh W 3.5 mph5.6 kmh 29.97 in1014.9 mb - 0.00 in0.0 mm 0.00 in0.0 mm
12:00 PM 57.7°F14.3°C 40.7°F4.8°C 53% 2.3 mph SW3.7 kmh SW 10.4 mph16.7 kmh 29.97 in1014.9 mb - 0.00 in0.0 mm 0.00 in0.0 mm
11:50 AM 58.0°F14.4°C 40.0°F4.4°C 51% 2.3 mph WSW3.7 kmh WSW 5.8 mph9.3 kmh 29.97 in1014.9 mb - 0.00 in0.0 mm 0.00 in0.0 mm
11:40 AM 58.5°F14.7°C 41.0°F5.0°C 52% 2.3 mph W3.7 kmh W 5.8 mph9.3 kmh 29.97 in1014.9 mb - 0.00 in0.0 mm 0.00 in0.0 mm
11:30 AM 57.6°F14.2°C 41.5°F5.3°C 55% 3.5 mph W5.6 kmh W 6.9 mph11.1 kmh 29.97 in1014.9 mb - 0.00 in0.0 mm 0.00 in0.0 mm
11:20 AM 58.8°F14.9°C 42.2°F5.7°C 54% 5.8 mph WSW9.3 kmh WSW 11.5 mph18.5 kmh 29.97 in1014.9 mb - 0.00 in0.0 mm 0.00 in0.0 mm
11:10 AM 57.4°F14.1°C 41.4°F5.2°C 55% 5.8 mph W9.3 kmh W 10.4 mph16.7 kmh 29.97 in1014.9 mb - 0.00 in0.0 mm 0.00 in0.0 mm
11:00 AM 57.8°F14.3°C 41.3°F5.2°C 54% 1.2 mph WSW1.9 kmh WSW 4.6 mph7.4 kmh 29.97 in1014.9 mb - 0.00 in0.0 mm 0.00 in0.0 mm
10:50 AM 57.8°F14.3°C 43.1°F6.2°C 58% 1.2 mph W1.9 kmh W 5.8 mph9.3 kmh 29.97 in1014.9 mb - 0.00 in0.0 mm 0.00 in0.0 mm
10:40 AM 57.1°F13.9°C 41.1°F5.1°C 55% 4.6 mph W7.4 kmh W 6.9 mph11.1 kmh 29.97 in1014.9 mb - 0.00 in0.0 mm 0.00 in0.0 mm
10:30 AM 57.5°F14.2°C 41.9°F5.5°C 56% 4.6 mph W7.4 kmh W 5.8 mph9.3 kmh 29.97 in1014.9 mb - 0.00 in0.0 mm 0.00 in0.0 mm
10:20 AM 55.7°F13.2°C 40.7°F4.8°C 57% 3.5 mph W5.6 kmh W 6.9 mph11.1 kmh 29.97 in1014.9 mb - 0.00 in0.0 mm 0.00 in0.0 mm
10:10 AM 56.2°F13.4°C 41.2°F5.1°C 57% 2.3 mph WSW3.7 kmh WSW 3.5 mph5.6 kmh 29.97 in1014.9 mb - 0.00 in0.0 mm 0.00 in0.0 mm
10:00 AM 56.5°F13.6°C 40.6°F4.8°C 55% 1.2 mph W1.9 kmh W 3.5 mph5.6 kmh 29.97 in1014.9 mb - 0.00 in0.0 mm 0.00 in0.0 mm
09:50 AM 56.3°F13.5°C 41.7°F5.4°C 58% 4.6 mph W7.4 kmh W 11.5 mph18.5 kmh 29.97 in1014.9 mb - 0.00 in0.0 mm 0.00 in0.0 mm
09:40 AM 55.9°F13.3°C 42.2°F5.7°C 60% 1.2 mph W1.9 kmh W 6.9 mph11.1 kmh 29.97 in1014.9 mb - 0.00 in0.0 mm 0.00 in0.0 mm
09:30 AM 55.2°F12.9°C 42.4°F5.8°C 62% 3.5 mph W5.6 kmh W 8.1 mph13.0 kmh 29.97 in1014.9 mb - 0.00 in0.0 mm 0.00 in0.0 mm
09:20 AM 55.1°F12.8°C 42.3°F5.7°C 62% 3.5 mph WSW5.6 kmh WSW 8.1 mph13.0 kmh 29.97 in1014.9 mb - 0.00 in0.0 mm 0.00 in0.0 mm
09:10 AM 54.8°F12.7°C 42.8°F6.0°C 64% 1.2 mph W1.9 kmh W 3.5 mph5.6 kmh 29.97 in1014.9 mb - 0.00 in0.0 mm 0.00 in0.0 mm
09:00 AM 53.7°F12.1°C 41.4°F5.2°C 63% 5.8 mph W9.3 kmh W 8.1 mph13.0 kmh 29.97 in1014.9 mb - 0.00 in0.0 mm 0.00 in0.0 mm
08:50 AM 53.5°F11.9°C 42.0°F5.6°C 65% 4.6 mph WNW7.4 kmh WNW 8.1 mph13.0 kmh 29.96 in1014.6 mb - 0.00 in0.0 mm 0.00 in0.0 mm
08:40 AM 53.5°F11.9°C 42.4°F5.8°C 66% 5.8 mph WNW9.3 kmh WNW 9.2 mph14.8 kmh 29.96 in1014.6 mb - 0.00 in0.0 mm 0.00 in0.0 mm
08:30 AM 53.0°F11.7°C 41.2°F5.1°C 64% 4.6 mph W7.4 kmh W 10.4 mph16.7 kmh 29.97 in1014.9 mb - 0.00 in0.0 mm 0.00 in0.0 mm
08:20 AM 53.1°F11.7°C 42.0°F5.6°C 66% 3.5 mph W5.6 kmh W 10.4 mph16.7 kmh 29.97 in1014.9 mb - 0.00 in0.0 mm 0.00 in0.0 mm
08:10 AM 53.2°F11.8°C 42.1°F5.6°C 66% 2.3 mph NW3.7 kmh NW 6.9 mph11.1 kmh 29.96 in1014.6 mb - 0.00 in0.0 mm 0.00 in0.0 mm
08:00 AM 53.0°F11.7°C 43.1°F6.2°C 69% 3.5 mph W5.6 kmh W 6.9 mph11.1 kmh 29.96 in1014.6 mb - 0.00 in0.0 mm 0.00 in0.0 mm
07:50 AM 52.3°F11.3°C 43.5°F6.4°C 72% 1.2 mph WNW1.9 kmh WNW 6.9 mph11.1 kmh 29.96 in1014.6 mb - 0.00 in0.0 mm 0.00 in0.0 mm
07:40 AM 52.2°F11.2°C 43.1°F6.2°C 71% 4.6 mph W7.4 kmh W 6.9 mph11.1 kmh 29.95 in1014.2 mb - 0.00 in0.0 mm 0.00 in0.0 mm
07:30 AM 52.0°F11.1°C 43.3°F6.3°C 72% 4.6 mph W7.4 kmh W 9.2 mph14.8 kmh 29.95 in1014.2 mb - 0.00 in0.0 mm 0.00 in0.0 mm
07:20 AM 52.3°F11.3°C 44.2°F6.8°C 74% 1.2 mph W1.9 kmh W 3.5 mph5.6 kmh 29.95 in1014.2 mb - 0.00 in0.0 mm 0.00 in0.0 mm
07:10 AM 52.3°F11.3°C 44.6°F7.0°C 75% 1.2 mph NW1.9 kmh NW 3.5 mph5.6 kmh 29.95 in1014.2 mb - 0.00 in0.0 mm 0.00 in0.0 mm
07:00 AM 52.1°F11.2°C 43.7°F6.5°C 73% 5.8 mph WNW9.3 kmh WNW 11.5 mph18.5 kmh 29.95 in1014.2 mb - 0.00 in0.0 mm 0.00 in0.0 mm
06:50 AM 52.4°F11.3°C 45.1°F7.3°C 76% 1.2 mph W1.9 kmh W 6.9 mph11.1 kmh 29.95 in1014.2 mb - 0.00 in0.0 mm 0.00 in0.0 mm
06:40 AM 51.8°F11.0°C 43.7°F6.5°C 74% 4.6 mph WNW7.4 kmh WNW 8.1 mph13.0 kmh 29.95 in1014.2 mb - 0.00 in0.0 mm 0.00 in0.0 mm
06:30 AM 51.2°F10.7°C 44.2°F6.8°C 77% 1.2 mph W1.9 kmh W 3.5 mph5.6 kmh 29.94 in1013.9 mb - 0.00 in0.0 mm 0.00 in0.0 mm
06:20 AM 51.2°F10.7°C 44.5°F6.9°C 78% 1.2 mph W1.9 kmh W 2.3 mph3.7 kmh 29.94 in1013.9 mb - 0.00 in0.0 mm 0.00 in0.0 mm
06:10 AM 50.3°F10.2°C 44.1°F6.7°C 79% 1.2 mph WNW1.9 kmh WNW 4.6 mph7.4 kmh 29.93 in1013.5 mb - 0.00 in0.0 mm 0.00 in0.0 mm
06:00 AM 49.7°F9.8°C 44.1°F6.7°C 81% 3.5 mph W5.6 kmh W 8.1 mph13.0 kmh 29.93 in1013.5 mb - 0.00 in0.0 mm 0.00 in0.0 mm
05:50 AM 48.7°F9.3°C 44.1°F6.7°C 84% 1.2 mph W1.9 kmh W 3.5 mph5.6 kmh 29.93 in1013.5 mb - 0.00 in0.0 mm 0.00 in0.0 mm
05:40 AM 48.1°F8.9°C 43.5°F6.4°C 84% Calm Calm -- 29.93 in1013.5 mb - 0.00 in0.0 mm 0.00 in0.0 mm
05:30 AM 47.9°F8.8°C 43.6°F6.4°C 85% Calm Calm 1.2 mph1.9 kmh 29.93 in1013.5 mb - 0.00 in0.0 mm 0.00 in0.0 mm
05:20 AM 47.6°F8.7°C 43.0°F6.1°C 84% Calm Calm -- 29.92 in1013.2 mb - 0.00 in0.0 mm 0.00 in0.0 mm
05:10 AM 46.8°F8.2°C 42.5°F5.8°C 85% 1.2 mph W1.9 kmh W 3.5 mph5.6 kmh 29.92 in1013.2 mb - 0.00 in0.0 mm 0.00 in0.0 mm
05:00 AM 46.3°F7.9°C 42.3°F5.7°C 86% 1.2 mph W1.9 kmh W 3.5 mph5.6 kmh 29.92 in1013.2 mb - 0.00 in0.0 mm 0.00 in0.0 mm
04:50 AM 46.1°F7.8°C 42.2°F5.7°C 86% Calm Calm 1.2 mph1.9 kmh 29.91 in1012.9 mb - 0.00 in0.0 mm 0.00 in0.0 mm
04:40 AM 45.9°F7.7°C 42.0°F5.6°C 86% Calm Calm 3.5 mph5.6 kmh 29.91 in1012.9 mb - 0.00 in0.0 mm 0.00 in0.0 mm
04:30 AM 45.1°F7.3°C 41.5°F5.3°C 87% Calm Calm 1.2 mph1.9 kmh 29.91 in1012.9 mb - 0.00 in0.0 mm 0.00 in0.0 mm
04:20 AM 45.0°F7.2°C 41.4°F5.2°C 87% Calm Calm -- 29.91 in1012.9 mb - 0.00 in0.0 mm 0.00 in0.0 mm
04:10 AM 45.3°F7.4°C 41.1°F5.1°C 85% Calm Calm -- 29.90 in1012.5 mb - 0.00 in0.0 mm 0.00 in0.0 mm
04:00 AM 45.6°F7.6°C 41.4°F5.2°C 85% Calm Calm -- 29.90 in1012.5 mb - 0.00 in0.0 mm 0.00 in0.0 mm
03:50 AM 45.6°F7.6°C 41.4°F5.2°C 85% Calm Calm -- 29.90 in1012.5 mb - 0.00 in0.0 mm 0.00 in0.0 mm
03:40 AM 46.0°F7.8°C 41.7°F5.4°C 85% Calm Calm -- 29.89 in1012.2 mb - 0.00 in0.0 mm 0.00 in0.0 mm
03:30 AM 46.4°F8.0°C 41.8°F5.4°C 84% Calm Calm -- 29.90 in1012.5 mb - 0.00 in0.0 mm 0.00 in0.0 mm
03:20 AM 46.9°F8.3°C 42.0°F5.6°C 83% Calm Calm -- 29.90 in1012.5 mb - 0.00 in0.0 mm 0.00 in0.0 mm
03:10 AM 47.4°F8.6°C 41.9°F5.5°C 81% Calm Calm -- 29.90 in1012.5 mb - 0.00 in0.0 mm 0.00 in0.0 mm
03:00 AM 47.9°F8.8°C 42.4°F5.8°C 81% Calm Calm 3.5 mph5.6 kmh 29.89 in1012.2 mb - 0.00 in0.0 mm 0.00 in0.0 mm
02:50 AM 48.1°F8.9°C 42.9°F6.1°C 82% Calm Calm 1.2 mph1.9 kmh 29.89 in1012.2 mb - 0.00 in0.0 mm 0.00 in0.0 mm
02:40 AM 48.7°F9.3°C 43.1°F6.2°C 81% Calm Calm -- 29.89 in1012.2 mb - 0.00 in0.0 mm 0.00 in0.0 mm
02:30 AM 48.7°F9.3°C 43.1°F6.2°C 81% Calm Calm 1.2 mph1.9 kmh 29.89 in1012.2 mb - 0.00 in0.0 mm 0.00 in0.0 mm
02:20 AM 48.3°F9.1°C 43.4°F6.3°C 83% 1.2 mph W1.9 kmh W 3.5 mph5.6 kmh 29.89 in1012.2 mb - 0.00 in0.0 mm 0.00 in0.0 mm
02:10 AM 47.7°F8.7°C 43.4°F6.3°C 85% 1.2 mph W1.9 kmh W 2.3 mph3.7 kmh 29.89 in1012.2 mb - 0.00 in0.0 mm 0.00 in0.0 mm
02:00 AM 47.4°F8.6°C 43.7°F6.5°C 87% Calm Calm -- 29.89 in1012.2 mb - 0.00 in0.0 mm 0.00 in0.0 mm
01:50 AM 47.2°F8.4°C 44.1°F6.7°C 89% Calm Calm 2.3 mph3.7 kmh 29.89 in1012.2 mb - 0.00 in0.0 mm 0.00 in0.0 mm
01:40 AM 47.6°F8.7°C 44.8°F7.1°C 90% Calm Calm -- 29.89 in1012.2 mb - 0.00 in0.0 mm 0.00 in0.0 mm
01:30 AM 47.3°F8.5°C 44.2°F6.8°C 89% Calm Calm 2.3 mph3.7 kmh 29.88 in1011.9 mb - 0.00 in0.0 mm 0.00 in0.0 mm
01:20 AM 47.6°F8.7°C 44.2°F6.8°C 88% Calm Calm -- 29.88 in1011.9 mb - 0.00 in0.0 mm 0.00 in0.0 mm
01:10 AM 48.3°F9.1°C 44.9°F7.2°C 88% Calm Calm -- 29.88 in1011.9 mb - 0.00 in0.0 mm 0.00 in0.0 mm
01:00 AM 48.5°F9.2°C 45.1°F7.3°C 88% Calm Calm 2.3 mph3.7 kmh 29.88 in1011.9 mb - 0.00 in0.0 mm 0.00 in0.0 mm
12:50 AM 48.6°F9.2°C 45.2°F7.3°C 88% Calm Calm -- 29.88 in1011.9 mb - 0.00 in0.0 mm 0.00 in0.0 mm
12:40 AM 48.4°F9.1°C 45.0°F7.2°C 88% Calm Calm -- 29.88 in1011.9 mb - 0.00 in0.0 mm 0.00 in0.0 mm
12:30 AM 48.3°F9.1°C 44.6°F7.0°C 87% Calm Calm 2.3 mph3.7 kmh 29.87 in1011.5 mb - 0.00 in0.0 mm 0.00 in0.0 mm
12:20 AM 48.4°F9.1°C 44.8°F7.1°C 87% Calm Calm -- 29.88 in1011.9 mb - 0.00 in0.0 mm 0.00 in0.0 mm
12:10 AM 48.4°F9.1°C 44.7°F7.1°C 87% 1.2 mph WSW1.9 kmh WSW 3.5 mph5.6 kmh 29.88 in1011.9 mb - 0.00 in0.0 mm 0.00 in0.0 mm
12:00 AM 48.5°F9.2°C 44.5°F6.9°C 86% Calm Calm 2.3 mph3.7 kmh 29.88 in1011.9 mb - 0.00 in0.0 mm 0.00 in0.0 mm